Time;durP1;ratioP1;P1;durP2;ratioP2;P2;SDS_P1;SDS_P2;PMS_P1;PMS_P2;Temp;Humidity;BMP_temperature;BMP_pressure;BME280_temperature;BME280_humidity;BME280_pressure;Samples;Min_cycle;Max_cycle;Signal;HPM_P1;HPM_P2
2023/02/16 00:01:42;;;;;;;0.00;0.00;;;;;;;11.00;69.97;100707.22;7354677;19;20019;-60
2023/02/16 00:04:18;;;;;;;0.00;0.00;;;;;;;11.01;69.17;100698.53;7347371;19;20475;-60
2023/02/16 00:06:44;;;;;;;0.00;0.00;;;;;;;10.91;70.08;100677.00;7339216;19;20002;-61
2023/02/16 00:09:10;;;;;;;0.00;0.00;;;;;;;10.95;70.16;100680.34;7346322;19;20053;-60
2023/02/16 00:14:25;;;;;;;0.00;0.00;;;;;;;10.94;70.08;100682.13;7344840;19;20082;-61
2023/02/16 00:16:51;;;;;;;0.00;0.00;;;;;;;10.94;70.35;100682.13;7324941;19;20086;-61
2023/02/16 00:19:21;;;;;;;0.00;0.00;;;;;;;10.94;70.45;100671.66;7334871;19;21788;-61
2023/02/16 00:21:48;;;;;;;0.00;0.00;;;;;;;10.93;70.50;100674.31;7349520;19;20459;-60
2023/02/16 00:24:14;;;;;;;0.00;0.00;;;;;;;10.93;70.63;100669.09;7353871;19;20043;-60
2023/02/16 00:26:41;;;;;;;0.00;0.00;;;;;;;10.93;70.67;100667.34;7354168;19;20459;-60
2023/02/16 00:29:14;;;;;;;0.00;0.00;;;;;;;10.94;70.42;100656.00;7355291;19;20082;-61
2023/02/16 00:31:39;;;;;;;0.00;0.00;;;;;;;10.90;70.59;100654.38;7355029;19;20541;-61
2023/02/16 00:34:30;;;;;;;0.00;0.00;;;;;;;10.92;69.69;100652.56;7355631;19;20007;-61
2023/02/16 00:36:58;;;;;;;0.03;0.03;;;;;;;10.95;70.24;100656.84;7251302;19;2004638;-61
2023/02/16 00:39:24;;;;;;;0.00;0.00;;;;;;;10.95;70.59;100656.84;7355740;19;20013;-61
2023/02/16 00:41:52;;;;;;;0.00;0.00;;;;;;;10.96;70.50;100648.13;7350126;19;20517;-59
2023/02/16 00:44:40;;;;;;;0.00;0.00;;;;;;;10.98;69.48;100652.41;7350031;19;20007;-61
2023/02/16 00:47:22;;;;;;;0.10;0.10;;;;;;;10.97;70.55;100655.94;7252149;19;2004494;-61
2023/02/16 00:49:50;;;;;;;0.00;0.00;;;;;;;10.94;70.88;100642.94;7349872;19;20006;-61
2023/02/16 00:52:38;;;;;;;0.00;0.00;;;;;;;11.00;69.97;100644.53;7353895;19;20541;-61
2023/02/16 00:55:08;;;;;;;0.00;0.00;;;;;;;10.93;70.50;100638.59;7349149;19;20414;-61
2023/02/16 00:57:39;;;;;;;0.00;0.00;;;;;;;11.00;70.51;100634.97;7353253;19;20661;-61
2023/02/16 01:00:20;;;;;;;0.00;0.00;;;;;;;11.03;70.16;100634.00;7353771;19;20006;-60
2023/02/16 01:02:47;;;;;;;0.05;0.05;;;;;;;10.94;71.09;100614.19;7354630;19;20006;-61
2023/02/16 01:05:13;;;;;;;0.10;0.10;;;;;;;11.01;70.93;100626.22;7353046;19;20786;-61
2023/02/16 01:13:09;;;;;;;0.00;0.00;;;;;;;11.05;71.09;100621.75;7355284;19;20476;-60
2023/02/16 01:15:34;;;;;;;0.10;0.10;;;;;;;11.06;71.18;100618.25;7354764;19;20073;-61
2023/02/16 01:18:00;;;;;;;0.00;0.00;;;;;;;11.01;71.04;100604.47;7352896;19;20708;-61
2023/02/16 01:20:26;;;;;;;0.00;0.00;;;;;;;11.06;70.80;100608.66;7355345;19;20070;-61
2023/02/16 01:22:52;;;;;;;0.10;0.10;;;;;;;11.09;71.23;100619.03;7352691;19;20396;-60
2023/02/16 01:25:17;;;;;;;0.10;0.10;;;;;;;11.11;71.12;100611.16;7353404;19;21334;-61
2023/02/16 01:27:43;;;;;;;0.00;0.00;;;;;;;11.02;71.07;100599.19;7352721;19;20824;-61
2023/02/16 01:30:15;;;;;;;0.00;0.00;;;;;;;11.17;70.72;100606.63;7353010;19;20497;-61
2023/02/16 01:32:41;;;;;;;0.03;0.03;;;;;;;11.06;71.24;100592.97;7349824;19;20038;-61
2023/02/16 01:35:07;;;;;;;0.00;0.00;;;;;;;11.08;71.34;100580.72;7353362;19;20011;-60
2023/02/16 01:37:33;;;;;;;0.10;0.10;;;;;;;11.20;71.38;100604.81;7352172;19;20031;-61
2023/02/16 01:39:58;;;;;;;0.00;0.00;;;;;;;11.20;70.42;100613.50;7353289;19;20008;-60
2023/02/16 01:42:42;;;;;;;0.10;0.10;;;;;;;11.25;69.57;100600.31;7353285;19;20025;-60
2023/02/16 01:45:12;;;;;;;0.10;0.10;;;;;;;11.24;70.49;100601.22;7355807;19;20010;-61
2023/02/16 01:47:46;;;;;;;0.05;0.05;;;;;;;11.17;69.59;100598.78;7357532;19;20017;-61
2023/02/16 01:50:22;;;;;;;0.00;0.00;;;;;;;11.29;69.60;100601.94;7356426;19;20465;-60
2023/02/16 01:52:50;;;;;;;0.00;0.00;;;;;;;11.30;69.50;100595.81;7359998;19;20065;-61
2023/02/16 01:55:21;;;;;;;0.10;0.10;;;;;;;11.32;69.84;100596.66;7358341;19;20098;-61
2023/02/16 01:58:14;;;;;;;0.00;0.00;;;;;;;11.34;69.03;100598.31;7358767;19;20040;-60
2023/02/16 02:00:48;;;;;;;0.10;0.10;;;;;;;11.34;69.88;100590.47;7259089;19;2004519;-61
2023/02/16 02:06:02;;;;;;;0.00;0.00;;;;;;;11.34;70.21;100593.06;7356276;19;20023;-61
2023/02/16 02:08:52;;;;;;;0.00;0.00;;;;;;;11.37;69.36;100597.38;7356576;19;20002;-61
2023/02/16 02:11:25;;;;;;;0.00;0.00;;;;;;;11.25;69.63;100569.81;7255331;19;2004309;-61
2023/02/16 02:13:59;;;;;;;0.00;0.00;;;;;;;11.38;69.12;100580.78;7358781;19;20106;-61
2023/02/16 02:16:27;;;;;;;0.00;0.00;;;;;;;11.37;69.81;100577.31;7357428;19;20007;-60
2023/02/16 02:18:52;;;;;;;0.00;0.00;;;;;;;11.34;70.06;100568.69;7356597;19;20018;-61
2023/02/16 02:25:01;;;;;;;0.00;0.00;;;;;;;11.42;68.93;100579.81;7258461;19;2005037;-61
2023/02/16 02:27:37;;;;;;;0.03;0.03;;;;;;;11.41;69.41;100578.09;7256875;19;2004486;-61
2023/02/16 02:30:30;;;;;;;0.00;0.00;;;;;;;11.42;68.58;100575.44;7358343;19;20010;-61
2023/02/16 02:33:17;;;;;;;0.10;0.10;;;;;;;11.43;68.61;100571.91;7253111;19;2004503;-61
2023/02/16 02:35:53;;;;;;;0.00;0.00;;;;;;;11.26;69.69;100547.16;7360657;19;20565;-60
2023/02/16 02:38:22;;;;;;;0.00;0.00;;;;;;;11.40;70.21;100565.91;7363853;19;20074;-61
2023/02/16 02:41:07;;;;;;;0.10;0.10;;;;;;;11.44;69.90;100559.69;7358660;19;20002;-60
2023/02/16 02:43:40;;;;;;;0.10;0.10;;;;;;;11.42;70.20;100549.28;7360246;19;20003;-61
2023/02/16 02:46:24;;;;;;;0.08;0.08;;;;;;;11.46;69.35;100550.06;7363094;19;20010;-61
2023/02/16 02:48:50;;;;;;;0.00;0.00;;;;;;;11.44;70.32;100557.09;7363600;19;20003;-60
2023/02/16 02:51:28;;;;;;;0.10;0.10;;;;;;;11.44;70.04;100557.09;7360312;19;20014;-61
2023/02/16 03:02:47;;;;;;;0.10;0.10;;;;;;;11.40;71.37;100551.09;7360251;19;20013;-61
2023/02/16 03:05:15;;;;;;;0.05;0.05;;;;;;;11.51;70.99;100569.09;7354519;19;20098;-61
2023/02/16 03:07:45;;;;;;;0.00;0.00;;;;;;;11.56;71.17;100582.91;7361822;19;21305;-61
2023/02/16 03:13:17;;;;;;;0.00;0.00;;;;;;;11.62;70.78;100582.72;7258166;19;2004441;-60
2023/02/16 03:15:46;;;;;;;0.00;0.00;;;;;;;11.50;70.81;100559.50;7358818;19;20562;-61
2023/02/16 03:29:17;;;;;;;0.00;0.00;;;;;;;11.75;70.88;100600.66;7360879;19;20018;-61
2023/02/16 03:31:44;;;;;;;0.00;0.00;;;;;;;11.78;71.31;100600.59;7350245;19;20010;-61
2023/02/16 03:34:11;;;;;;;0.00;0.00;;;;;;;11.76;71.48;100595.41;7361891;19;20010;-61
2023/02/16 03:36:40;;;;;;;0.08;0.08;;;;;;;11.80;71.70;100590.91;7352263;19;20011;-60
2023/02/16 03:39:06;;;;;;;0.00;0.00;;;;;;;11.50;71.85;100528.13;7359550;19;20656;-61
2023/02/16 03:41:37;;;;;;;0.00;0.00;;;;;;;11.81;71.38;100579.53;7359298;19;20675;-61
2023/02/16 03:44:02;;;;;;;0.10;0.10;;;;;;;11.80;71.12;100570.84;7359501;19;20014;-61
2023/02/16 03:46:28;;;;;;;0.00;0.00;;;;;;;11.83;70.96;100570.78;7357476;19;20034;-61
2023/02/16 03:48:53;;;;;;;0.00;0.00;;;;;;;11.84;71.09;100561.19;7357595;19;20094;-61
2023/02/16 03:51:19;;;;;;;0.00;0.00;;;;;;;11.78;71.82;100550.88;7353717;19;20486;-61
2023/02/16 03:53:44;;;;;;;0.00;0.00;;;;;;;11.86;71.74;100554.13;7358461;19;20010;-61
2023/02/16 03:56:09;;;;;;;0.00;0.00;;;;;;;11.88;71.85;100562.81;7357659;19;20079;-61
2023/02/16 03:58:35;;;;;;;0.10;0.10;;;;;;;11.89;71.31;100567.13;7340689;19;20006;-60
2023/02/16 04:01:00;;;;;;;0.00;0.00;;;;;;;11.90;71.91;100571.44;7358810;19;20034;-61
2023/02/16 04:03:26;;;;;;;0.00;0.00;;;;;;;11.91;70.36;100568.81;7330972;19;20018;-60
2023/02/16 04:05:51;;;;;;;0.00;0.00;;;;;;;11.93;71.66;100571.38;7357420;19;20006;-61
2023/02/16 04:08:17;;;;;;;0.00;0.00;;;;;;;11.96;70.94;100563.41;7356485;19;20011;-61
2023/02/16 04:10:43;;;;;;;0.00;0.00;;;;;;;11.96;71.45;100563.41;7358013;19;20006;-61
2023/02/16 04:13:09;;;;;;;0.00;0.00;;;;;;;11.97;71.49;100578.22;7351776;19;20236;-61
2023/02/16 04:15:34;;;;;;;0.00;0.00;;;;;;;11.99;71.08;100575.56;7360439;19;21038;-61
2023/02/16 04:18:01;;;;;;;0.05;0.05;;;;;;;11.99;71.47;100565.94;7355881;19;20007;-61
2023/02/16 04:20:29;;;;;;;0.10;0.10;;;;;;;12.02;71.96;100570.25;7333835;19;20014;-61
2023/02/16 04:22:55;;;;;;;0.00;0.00;;;;;;;11.94;71.29;100560.84;7357788;19;20014;-61
2023/02/16 04:25:21;;;;;;;0.00;0.00;;;;;;;12.03;71.86;100574.56;7358403;19;20040;-61
2023/02/16 04:27:47;;;;;;;0.00;0.00;;;;;;;12.05;71.80;100580.59;7358322;19;20619;-61
2023/02/16 04:30:15;;;;;;;0.00;0.00;;;;;;;12.07;72.24;100579.66;7359263;19;21128;-61
2023/02/16 04:32:41;;;;;;;0.08;0.08;;;;;;;12.05;71.99;100570.13;7355913;19;20658;-61
2023/02/16 04:35:06;;;;;;;0.00;0.00;;;;;;;12.08;72.41;100576.13;7359283;19;20048;-61
2023/02/16 04:37:32;;;;;;;0.00;0.00;;;;;;;12.09;72.25;100577.84;7360502;19;20014;-61
2023/02/16 04:39:58;;;;;;;0.00;0.00;;;;;;;12.05;71.44;100583.22;7359021;19;22012;-61
2023/02/16 04:42:23;;;;;;;0.10;0.10;;;;;;;12.14;71.82;100590.78;7358691;19;20572;-61
2023/02/16 04:44:49;;;;;;;0.00;0.00;;;;;;;12.14;72.53;100596.88;7355537;19;20021;-61
2023/02/16 04:47:15;;;;;;;0.00;0.00;;;;;;;12.18;71.82;100592.41;7359849;19;20066;-61
2023/02/16 04:49:40;;;;;;;0.00;0.00;;;;;;;12.05;71.94;100571.00;7357891;19;20017;-61
2023/02/16 04:52:06;;;;;;;0.00;0.00;;;;;;;12.20;72.47;100601.94;7359140;19;20010;-61
2023/02/16 04:54:32;;;;;;;0.00;0.00;;;;;;;12.24;71.66;100604.47;7357697;19;20050;-61
2023/02/16 04:56:58;;;;;;;0.03;0.03;;;;;;;12.24;72.40;100601.84;7356271;19;20014;-61
2023/02/16 04:59:24;;;;;;;0.00;0.00;;;;;;;12.25;72.67;100603.56;7356318;19;20015;-61
2023/02/16 05:01:49;;;;;;;0.00;0.00;;;;;;;12.16;72.78;100591.59;7350599;19;20017;-62
2023/02/16 05:04:15;;;;;;;0.00;0.00;;;;;;;12.19;72.06;100605.44;7356100;19;20480;-61
2023/02/16 05:06:41;;;;;;;0.00;0.00;;;;;;;12.30;72.52;100609.50;7354314;19;20442;-61
2023/02/16 05:09:06;;;;;;;0.00;0.00;;;;;;;12.31;72.33;100611.22;7357003;19;20351;-61
2023/02/16 05:17:03;;;;;;;0.00;0.00;;;;;;;12.20;72.16;100615.00;7362432;19;20024;-61
2023/02/16 05:19:28;;;;;;;0.03;0.03;;;;;;;12.16;72.09;100604.69;7352966;19;23068;-62
2023/02/16 05:21:53;;;;;;;0.00;0.00;;;;;;;12.32;71.83;100621.66;7362756;19;20023;-60
2023/02/16 05:24:19;;;;;;;0.00;0.00;;;;;;;12.33;72.17;100622.50;7362917;19;20649;-61
2023/02/16 05:26:44;;;;;;;0.00;0.00;;;;;;;12.35;72.12;100623.31;7362943;19;20093;-61
2023/02/16 05:29:10;;;;;;;0.00;0.00;;;;;;;12.35;71.85;100620.69;7365832;19;20369;-61
2023/02/16 05:31:35;;;;;;;0.00;0.00;;;;;;;12.36;72.07;100622.41;7360538;19;20094;-61
2023/02/16 05:34:00;;;;;;;0.00;0.00;;;;;;;12.35;72.88;100625.94;7364359;19;20021;-61
2023/02/16 05:36:26;;;;;;;0.03;0.03;;;;;;;12.32;72.14;100621.66;7359684;19;20034;-61
2023/02/16 05:38:51;;;;;;;0.00;0.00;;;;;;;12.36;72.44;100640.72;7355883;19;20010;-61
2023/02/16 05:41:23;;;;;;;0.00;0.00;;;;;;;12.34;72.17;100639.94;7363672;19;20026;-61
2023/02/16 05:43:54;;;;;;;0.00;0.00;;;;;;;12.33;71.88;100643.47;7363845;19;20398;-61
2023/02/16 05:46:21;;;;;;;0.00;0.00;;;;;;;12.38;72.31;100657.25;7360461;19;20596;-61
2023/02/16 05:48:46;;;;;;;0.00;0.00;;;;;;;12.25;71.82;100640.19;7362416;19;20030;-61
2023/02/16 05:51:12;;;;;;;0.03;0.03;;;;;;;12.35;72.67;100662.59;7357658;19;20673;-61
2023/02/16 05:53:37;;;;;;;0.03;0.03;;;;;;;12.23;72.95;100644.66;7361054;19;20479;-61
2023/02/16 05:56:03;;;;;;;0.10;0.10;;;;;;;12.34;72.34;100676.59;7361643;19;20031;-61
2023/02/16 05:58:28;;;;;;;0.00;0.00;;;;;;;12.35;72.69;100689.63;7360477;19;20014;-61
2023/02/16 06:00:54;;;;;;;0.00;0.00;;;;;;;12.34;73.02;100697.53;7362379;19;20010;-61
2023/02/16 06:03:19;;;;;;;0.00;0.00;;;;;;;12.32;72.41;100700.22;7363090;19;20006;-61
2023/02/16 06:05:45;;;;;;;0.00;0.00;;;;;;;12.35;72.58;100705.34;7361321;19;20133;-61
2023/02/16 06:08:10;;;;;;;0.10;0.10;;;;;;;12.34;72.56;100713.25;7361750;19;20070;-61
2023/02/16 06:10:36;;;;;;;0.00;0.00;;;;;;;12.35;71.86;100714.97;7363138;19;20026;-61
2023/02/16 06:13:01;;;;;;;0.00;0.00;;;;;;;12.36;72.80;100716.66;7355068;19;20011;-61
2023/02/16 06:15:27;;;;;;;0.00;0.00;;;;;;;12.33;72.17;100712.41;7363479;19;20021;-61
2023/02/16 06:17:52;;;;;;;0.10;0.10;;;;;;;12.35;72.62;100715.81;7357668;19;20035;-61
2023/02/16 06:20:18;;;;;;;0.00;0.00;;;;;;;12.23;72.62;100699.63;7360841;19;20011;-61
2023/02/16 06:22:43;;;;;;;0.10;0.10;;;;;;;12.31;72.93;100726.41;7362577;19;20042;-61
2023/02/16 06:25:09;;;;;;;0.00;0.00;;;;;;;12.33;72.51;100717.63;7362182;19;20006;-61
2023/02/16 06:27:34;;;;;;;0.10;0.10;;;;;;;12.33;72.89;100719.41;7357229;19;20526;-61
2023/02/16 06:30:01;;;;;;;0.00;0.00;;;;;;;12.32;73.00;100715.06;7361650;19;20081;-61
2023/02/16 06:32:26;;;;;;;0.10;0.10;;;;;;;12.33;72.73;100711.53;7359888;19;20455;-61
2023/02/16 06:34:52;;;;;;;0.00;0.00;;;;;;;12.31;72.48;100713.31;7361669;19;20024;-61
2023/02/16 06:37:17;;;;;;;0.00;0.00;;;;;;;12.31;73.19;100729.03;7359370;19;20010;-61
2023/02/16 06:39:43;;;;;;;0.10;0.10;;;;;;;12.33;72.64;100728.09;7361071;19;20051;-61
2023/02/16 06:42:08;;;;;;;0.00;0.00;;;;;;;12.34;72.45;100739.44;7362986;19;20775;-61
2023/02/16 06:44:33;;;;;;;0.00;0.00;;;;;;;12.32;72.71;100725.53;7360361;19;20010;-61
2023/02/16 06:46:59;;;;;;;0.10;0.10;;;;;;;12.30;73.05;100722.94;7361679;19;20019;-61
2023/02/16 06:49:25;;;;;;;0.10;0.10;;;;;;;12.33;72.42;100728.09;7355374;19;20791;-61
2023/02/16 06:51:50;;;;;;;0.03;0.03;;;;;;;12.32;72.82;100728.16;7360526;19;20035;-61
2023/02/16 06:54:16;;;;;;;0.00;0.00;;;;;;;12.30;72.77;100727.31;7353114;19;20013;-61
2023/02/16 06:56:41;;;;;;;0.00;0.00;;;;;;;12.31;72.41;100729.88;7364069;19;20031;-61
2023/02/16 06:59:07;;;;;;;0.03;0.03;;;;;;;12.29;72.43;100729.09;7345947;19;20017;-61
2023/02/16 07:01:33;;;;;;;0.00;0.00;;;;;;;12.26;73.20;100736.16;7358478;19;20404;-61
2023/02/16 07:03:58;;;;;;;0.10;0.10;;;;;;;12.22;71.74;100739.81;7360935;19;20566;-61
2023/02/16 07:06:26;;;;;;;0.10;0.10;;;;;;;12.20;72.61;100742.44;7356089;19;20510;-61
2023/02/16 07:08:51;;;;;;;;;;;;;;;12.24;70.93;100749.31;7362107;19;19998;-61
2023/02/16 07:11:18;;;;;;;0.00;0.00;;;;;;;12.18;72.06;100746.88;7356657;19;19918;-61
2023/02/16 07:13:43;;;;;;;0.00;0.00;;;;;;;12.10;72.71;100741.84;7359472;19;20772;-61
2023/02/16 07:16:09;;;;;;;0.00;0.00;;;;;;;12.06;72.79;100740.22;7360873;19;20002;-61
2023/02/16 07:18:35;;;;;;;0.00;0.00;;;;;;;12.08;72.26;100759.38;7356421;19;20434;-61
2023/02/16 07:21:01;;;;;;;0.10;0.10;;;;;;;11.97;72.92;100743.09;7355921;19;20467;-61
2023/02/16 07:23:26;;;;;;;0.00;0.00;;;;;;;11.90;72.51;100738.94;7358538;19;20006;-61
2023/02/16 07:25:52;;;;;;;0.00;0.00;;;;;;;11.99;72.69;100767.47;7356756;19;20039;-61
2023/02/16 07:28:18;;;;;;;0.03;0.03;;;;;;;11.82;73.11;100740.91;7354883;19;20013;-61
2023/02/16 07:30:43;;;;;;;0.00;0.00;;;;;;;11.90;73.18;100759.84;7356471;19;20007;-61
2023/02/16 07:33:09;;;;;;;0.00;0.00;;;;;;;11.89;73.31;100771.22;7357886;19;20398;-61
2023/02/16 07:35:35;;;;;;;0.00;0.00;;;;;;;11.97;73.10;100781.50;7352208;19;20236;-61
2023/02/16 07:38:01;;;;;;;0.10;0.10;;;;;;;11.87;73.08;100755.59;7360088;19;20013;-61
2023/02/16 07:40:27;;;;;;;0.00;0.00;;;;;;;11.84;72.75;100744.34;7359137;19;20011;-61
2023/02/16 07:42:53;;;;;;;0.00;0.00;;;;;;;12.03;72.57;100770.88;7357351;19;20096;-61
2023/02/16 07:45:18;;;;;;;0.00;0.00;;;;;;;11.90;73.21;100759.84;7359044;19;20025;-61
2023/02/16 07:47:43;;;;;;;0.05;0.05;;;;;;;11.99;73.34;100785.78;7359259;19;20007;-61
2023/02/16 07:50:09;;;;;;;0.00;0.00;;;;;;;11.97;73.32;100790.22;7358671;19;20493;-61
2023/02/16 07:52:35;;;;;;;0.10;0.10;;;;;;;11.97;73.78;100802.44;7355492;19;20451;-61
2023/02/16 07:55:01;;;;;;;0.00;0.00;;;;;;;11.96;73.69;100796.31;7355534;19;20006;-61
2023/02/16 07:57:27;;;;;;;0.10;0.10;;;;;;;11.96;73.83;100801.56;7355064;19;20010;-61
2023/02/16 07:59:53;;;;;;;0.00;0.00;;;;;;;11.95;73.27;100805.94;7352645;19;21091;-62
2023/02/16 08:02:20;;;;;;;0.08;0.08;;;;;;;11.95;73.80;100828.63;7344152;19;20018;-61
2023/02/16 08:04:47;;;;;;;0.08;0.08;;;;;;;11.94;73.50;100840.00;7349136;19;20086;-61
2023/02/16 08:07:14;;;;;;;0.00;0.00;;;;;;;11.87;73.28;100825.38;7343984;19;20742;-61
2023/02/16 08:09:39;;;;;;;0.00;0.00;;;;;;;11.77;72.82;100811.63;7348318;19;20013;-61
2023/02/16 08:12:09;;;;;;;0.00;0.00;;;;;;;11.77;72.51;100814.25;7355960;19;20003;-60
2023/02/16 08:14:34;;;;;;;0.00;0.00;;;;;;;11.85;73.08;100845.47;7351031;19;20724;-61
2023/02/16 08:17:00;;;;;;;0.00;0.00;;;;;;;11.79;72.94;100845.59;7345490;19;20032;-61
2023/02/16 08:19:27;;;;;;;0.00;0.00;;;;;;;11.79;72.77;100856.06;7348790;19;20030;-61
2023/02/16 08:21:53;;;;;;;0.00;0.00;;;;;;;11.79;72.89;100863.91;7354248;19;20573;-61
2023/02/16 08:24:18;;;;;;;0.00;0.00;;;;;;;11.73;72.66;100867.56;7355496;19;21605;-61
2023/02/16 08:26:48;;;;;;;0.00;0.00;;;;;;;11.76;72.75;100890.16;7356059;19;20031;-61
2023/02/16 08:29:16;;;;;;;0.03;0.03;;;;;;;11.75;73.05;100891.03;7352828;19;20010;-61
2023/02/16 08:31:44;;;;;;;0.00;0.00;;;;;;;11.74;73.08;100895.41;7353947;19;20022;-61
2023/02/16 08:34:12;;;;;;;0.05;0.05;;;;;;;11.74;73.43;100894.56;7353414;19;20010;-61
2023/02/16 08:36:39;;;;;;;0.00;0.00;;;;;;;11.59;72.94;100874.88;7329345;19;20010;-61
2023/02/16 08:39:07;;;;;;;0.00;0.00;;;;;;;11.74;73.01;100899.78;7354427;19;20577;-61
2023/02/16 08:41:35;;;;;;;0.00;0.00;;;;;;;11.72;72.99;100901.59;7349278;19;20611;-61
2023/02/16 08:44:02;;;;;;;0.00;0.00;;;;;;;11.74;72.57;100903.28;7349709;19;20031;-61
2023/02/16 08:46:33;;;;;;;0.00;0.00;;;;;;;11.55;72.91;100879.31;7350613;19;20022;-60
2023/02/16 08:48:59;;;;;;;0.03;0.03;;;;;;;11.45;72.71;100862.13;7348891;19;20924;-59
2023/02/16 08:51:29;;;;;;;0.00;0.00;;;;;;;11.73;73.22;100909.41;7357253;19;20031;-61
2023/02/16 08:53:57;;;;;;;0.00;0.00;;;;;;;11.73;73.39;100903.31;7341518;19;20456;-60
2023/02/16 08:56:22;;;;;;;0.00;0.00;;;;;;;11.73;73.34;100898.09;7347914;19;20014;-61
2023/02/16 08:58:48;;;;;;;0.00;0.00;;;;;;;11.75;72.95;100906.75;7357793;19;20027;-61
2023/02/16 09:01:14;;;;;;;0.00;0.00;;;;;;;11.76;73.31;100908.47;7358439;19;20686;-61
2023/02/16 09:03:41;;;;;;;0.00;0.00;;;;;;;11.78;73.03;100906.69;7355847;19;20058;-60
2023/02/16 09:06:09;;;;;;;0.00;0.00;;;;;;;11.79;73.26;100913.63;7352739;19;20021;-60
2023/02/16 09:08:38;;;;;;;0.00;0.00;;;;;;;11.81;73.32;100917.06;7351869;19;20035;-60
2023/02/16 09:11:06;;;;;;;0.00;0.00;;;;;;;11.82;72.85;100921.44;7352039;19;20035;-61
2023/02/16 09:13:36;;;;;;;0.00;0.00;;;;;;;11.86;72.70;100921.34;7356236;19;20031;-61
2023/02/16 09:16:10;;;;;;;0.00;0.00;;;;;;;11.87;72.76;100924.81;7351615;19;20018;-61
2023/02/16 09:18:37;;;;;;;0.00;0.00;;;;;;;11.85;72.92;100939.66;7356682;19;20522;-61
2023/02/16 09:21:05;;;;;;;0.00;0.00;;;;;;;11.86;73.03;100942.28;7354563;19;20039;-61
2023/02/16 09:23:35;;;;;;;0.00;0.00;;;;;;;11.85;73.17;100944.91;7353446;19;20078;-57
2023/02/16 09:26:06;;;;;;;0.00;0.00;;;;;;;11.69;72.85;100898.16;7354573;19;20010;-58
2023/02/16 09:28:32;;;;;;;0.00;0.00;;;;;;;11.83;73.17;100921.41;7357552;19;20010;-57
2023/02/16 09:30:58;;;;;;;0.10;0.10;;;;;;;11.58;72.78;100892.31;7356306;19;20034;-59
2023/02/16 09:33:24;;;;;;;0.00;0.00;;;;;;;11.74;73.32;100924.19;7351903;19;20015;-58
2023/02/16 09:35:49;;;;;;;0.00;0.00;;;;;;;11.78;73.28;100943.31;7345227;19;20048;-58
2023/02/16 09:38:17;;;;;;;0.00;0.00;;;;;;;11.76;73.09;100939.84;7356513;19;20390;-58
2023/02/16 09:40:44;;;;;;;0.00;0.00;;;;;;;11.62;73.33;100922.75;7357152;19;20021;-58
2023/02/16 09:43:37;;;;;;;0.05;0.05;;;;;;;11.77;72.64;100934.59;7356997;19;20617;-57
2023/02/16 09:46:03;;;;;;;0.00;0.00;;;;;;;11.54;72.68;100908.97;7248719;19;2004496;-57
2023/02/16 09:48:44;;;;;;;0.00;0.00;;;;;;;11.67;72.78;100944.41;7358296;19;20006;-57
2023/02/16 09:51:34;;;;;;;0.10;0.10;;;;;;;11.52;72.61;100926.47;7354235;19;20010;-58
2023/02/16 09:54:14;;;;;;;0.00;0.00;;;;;;;11.69;72.58;100960.06;7356476;19;20007;-58
2023/02/16 09:56:55;;;;;;;0.10;0.10;;;;;;;11.67;72.84;100978.44;7357412;19;20022;-57
2023/02/16 09:59:42;;;;;;;0.10;0.10;;;;;;;11.66;72.25;100992.41;7352975;19;21089;-58
2023/02/16 10:02:22;;;;;;;0.00;0.00;;;;;;;11.65;71.87;100995.03;7355985;19;20774;-58
2023/02/16 10:05:07;;;;;;;0.00;0.00;;;;;;;11.60;72.67;101002.97;7356092;19;20470;-57
2023/02/16 10:07:35;;;;;;;0.08;0.08;;;;;;;11.59;72.48;101006.50;7358137;19;20010;-57
2023/02/16 10:10:03;;;;;;;0.00;0.00;;;;;;;11.40;72.49;100989.47;7362530;19;20074;-58
2023/02/16 10:12:39;;;;;;;0.00;0.00;;;;;;;11.57;72.49;101013.53;7362712;19;20018;-58
2023/02/16 10:15:29;;;;;;;0.00;0.00;;;;;;;11.59;72.62;101021.34;7363036;19;20592;-57
2023/02/16 10:18:02;;;;;;;0.10;0.10;;;;;;;11.57;73.11;101029.22;7356185;19;20014;-57
2023/02/16 10:20:32;;;;;;;0.10;0.10;;;;;;;11.58;73.10;101046.63;7364711;19;20010;-57
2023/02/16 10:23:12;;;;;;;0.03;0.03;;;;;;;11.60;72.66;101047.44;7361286;19;20010;-57
2023/02/16 10:26:09;;;;;;;0.10;0.10;;;;;;;11.62;73.18;101050.91;7362713;19;20007;-58
2023/02/16 10:28:44;;;;;;;0.00;0.00;;;;;;;11.61;72.88;101045.72;7258984;19;2004398;-57
2023/02/16 10:31:22;;;;;;;0.00;0.00;;;;;;;11.65;72.80;101037.75;7359341;19;20030;-58
2023/02/16 10:34:03;;;;;;;0.10;0.10;;;;;;;11.66;73.20;101029.03;7359281;19;20007;-58
2023/02/16 10:36:48;;;;;;;0.00;0.00;;;;;;;11.69;72.41;101034.19;7360398;19;20019;-57
2023/02/16 10:39:26;;;;;;;0.00;0.00;;;;;;;11.61;72.68;101020.44;7363123;19;20010;-57
2023/02/16 10:42:11;;;;;;;0.10;0.10;;;;;;;11.77;72.91;101041.03;7364656;19;20003;-57
2023/02/16 10:44:42;;;;;;;0.03;0.03;;;;;;;11.79;72.63;101057.53;7362590;19;20093;-57
2023/02/16 10:47:27;;;;;;;0.00;0.00;;;;;;;11.82;72.43;101049.66;7362248;19;20859;-57
2023/02/16 10:49:54;;;;;;;0.10;0.10;;;;;;;11.80;72.21;101041.78;7363070;19;20082;-58
2023/02/16 10:52:21;;;;;;;0.00;0.00;;;;;;;11.81;72.25;101047.88;7361559;19;20026;-57
2023/02/16 10:54:46;;;;;;;0.00;0.00;;;;;;;11.83;72.27;101046.16;7363804;19;20014;-57
2023/02/16 10:57:25;;;;;;;0.00;0.00;;;;;;;11.86;72.13;101040.81;7359081;19;20035;-58
2023/02/16 10:59:53;;;;;;;0.00;0.00;;;;;;;11.85;71.75;101050.44;7363590;19;21067;-58
2023/02/16 11:02:24;;;;;;;0.08;0.08;;;;;;;11.86;72.30;101040.81;7358378;19;20029;-58
2023/02/16 11:04:55;;;;;;;0.00;0.00;;;;;;;11.88;72.20;101026.81;7363170;19;20028;-57
2023/02/16 11:07:26;;;;;;;0.00;0.00;;;;;;;11.92;71.93;101025.00;7359518;19;20840;-57
2023/02/16 11:09:54;;;;;;;0.10;0.10;;;;;;;11.93;71.81;101029.34;7362185;19;20007;-58
2023/02/16 11:12:28;;;;;;;0.00;0.00;;;;;;;11.96;71.63;101047.56;7359352;19;20044;-57
2023/02/16 11:15:02;;;;;;;0.00;0.00;;;;;;;11.99;71.21;101039.66;7362860;19;20006;-57
2023/02/16 11:17:29;;;;;;;0.00;0.00;;;;;;;11.98;71.00;101048.41;7357154;19;20006;-57
2023/02/16 11:20:05;;;;;;;0.00;0.00;;;;;;;11.97;71.50;101048.47;7362911;19;20463;-57
2023/02/16 11:22:38;;;;;;;0.10;0.10;;;;;;;11.96;71.17;101050.19;7359027;19;20006;-57
2023/02/16 11:25:19;;;;;;;0.00;0.00;;;;;;;11.99;70.96;101062.34;7360566;19;20014;-58
2023/02/16 11:27:57;;;;;;;0.00;0.00;;;;;;;11.68;70.79;101016.78;7360706;19;20006;-58
2023/02/16 11:30:34;;;;;;;0.00;0.00;;;;;;;11.94;71.07;101059.84;7361824;19;20023;-57
2023/02/16 11:33:02;;;;;;;0.08;0.08;;;;;;;11.86;70.89;101060.03;7360999;19;19998;-58
2023/02/16 11:35:31;;;;;;;0.08;0.08;;;;;;;11.89;71.07;101065.19;7359098;19;20619;-57
2023/02/16 11:37:57;;;;;;;0.00;0.00;;;;;;;11.81;70.97;101068.81;7359583;19;20022;-58
2023/02/16 11:40:30;;;;;;;0.00;0.00;;;;;;;11.85;71.01;101065.28;7361713;19;20481;-58
2023/02/16 11:42:59;;;;;;;0.10;0.10;;;;;;;11.79;71.09;101049.69;7358412;19;20014;-57
2023/02/16 11:45:35;;;;;;;0.00;0.00;;;;;;;11.85;71.01;101062.66;7360994;19;20354;-58
2023/02/16 11:48:07;;;;;;;0.03;0.03;;;;;;;11.84;70.80;101058.31;7359824;19;20010;-57
2023/02/16 11:50:37;;;;;;;0.00;0.00;;;;;;;11.84;71.40;101048.72;7358803;19;19998;-58
2023/02/16 11:53:08;;;;;;;0.00;0.00;;;;;;;11.88;71.12;101049.50;7360308;19;20462;-58
2023/02/16 11:55:34;;;;;;;0.10;0.10;;;;;;;11.89;71.60;101051.22;7357871;19;20355;-57
2023/02/16 11:58:20;;;;;;;0.08;0.08;;;;;;;11.84;71.25;101017.31;7357492;19;20014;-59
2023/02/16 12:01:17;;;;;;;0.10;0.10;;;;;;;12.04;71.70;101035.19;7360360;19;20333;-57
2023/02/16 12:03:42;;;;;;;0.10;0.10;;;;;;;12.19;71.97;101034.81;7258710;19;2004543;-57
2023/02/16 12:06:38;;;;;;;0.10;0.10;;;;;;;12.33;71.34;101010.06;7360254;19;20003;-57
2023/02/16 12:09:19;;;;;;;0.00;0.00;;;;;;;12.47;70.97;101021.06;7257319;19;2004354;-58
2023/02/16 12:12:11;;;;;;;0.10;0.10;;;;;;;12.58;71.01;101020.78;7358570;19;20006;-57
2023/02/16 12:14:44;;;;;;;0.00;0.00;;;;;;;12.70;70.96;100996.88;7258340;19;2004563;-58
2023/02/16 12:17:28;;;;;;;0.00;0.00;;;;;;;13.01;71.95;100989.00;7359236;19;20038;-58
2023/02/16 12:20:18;;;;;;;0.00;0.00;;;;;;;13.25;71.25;100998.00;7356236;19;20009;-58